createdAt,value
2018-01-25T00:00:33.888Z,8.8
2018-01-25T00:01:42.719Z,8.87
2018-01-25T00:02:51.825Z,8.86
2018-01-25T00:04:00.757Z,8.76
2018-01-25T00:05:09.862Z,8.79
2018-01-25T00:06:18.694Z,8.76
2018-01-25T00:07:27.522Z,9.04
2018-01-25T00:08:36.354Z,8.74
2018-01-25T00:09:45.186Z,8.59
2018-01-25T00:10:54.287Z,8.68
2018-01-25T00:12:03.118Z,8.62
2018-01-25T00:13:11.961Z,8.71
2018-01-25T00:14:21.064Z,8.62
2018-01-25T00:15:29.996Z,8.65
2018-01-25T00:16:38.827Z,8.56
2018-01-25T00:17:47.936Z,8.48
2018-01-25T00:18:56.770Z,8.41
2018-01-25T00:20:05.602Z,8.4
2018-01-25T00:21:14.585Z,8.47
2018-01-25T00:22:23.415Z,8.5
2018-01-25T00:23:32.244Z,8.41
2018-01-25T00:24:41.076Z,8.5
2018-01-25T00:25:49.908Z,8.62
2018-01-25T00:26:58.742Z,8.62
2018-01-25T00:28:07.575Z,8.62
2018-01-25T00:29:16.407Z,8.56
2018-01-25T00:30:25.238Z,8.5
2018-01-25T00:31:34.073Z,8.48
2018-01-25T00:32:42.906Z,8.5
2018-01-25T00:33:51.735Z,8.5
2018-01-25T00:35:00.565Z,8.58
2018-01-25T00:36:09.396Z,8.48
2018-01-25T00:37:18.226Z,8.43
2018-01-25T00:38:27.409Z,8.38
2018-01-25T00:39:36.240Z,8.4
2018-01-25T00:40:45.073Z,8.38
2018-01-25T00:41:53.909Z,8.29
2018-01-25T00:43:02.738Z,8.34
2018-01-25T00:44:11.669Z,8.3
2018-01-25T00:45:20.500Z,8.3
2018-01-25T00:46:29.332Z,8.36
2018-01-25T00:47:38.164Z,8.37
2018-01-25T00:48:46.997Z,8.45
2018-01-25T00:49:56.108Z,8.3
2018-01-25T00:51:04.939Z,8.26
2018-01-25T00:52:13.773Z,8.34
2018-01-25T00:53:22.610Z,8.33
2018-01-25T00:54:31.439Z,8.4
2018-01-25T00:55:40.269Z,8.36
2018-01-25T00:56:49.100Z,8.36
2018-01-25T00:57:58.208Z,8.34
2018-01-25T00:59:07.313Z,8.34
2018-01-25T01:00:16.144Z,8.34
2018-01-25T01:01:25.072Z,8.34
2018-01-25T01:02:34.453Z,8.34
2018-01-25T01:03:43.284Z,8.29
2018-01-25T01:04:52.116Z,8.33
2018-01-25T01:06:01.232Z,8.33
2018-01-25T01:07:10.634Z,8.33
2018-01-25T01:08:19.465Z,8.41
2018-01-25T01:09:28.296Z,8.41
2018-01-25T01:10:37.130Z,8.41
2018-01-25T01:11:45.961Z,8.41
2018-01-25T01:12:55.091Z,8.34
2018-01-25T01:14:03.925Z,8.5
2018-01-25T01:15:12.758Z,8.43
2018-01-25T01:16:21.588Z,8.41
2018-01-25T01:17:30.693Z,8.58
2018-01-25T01:18:39.676Z,8.48
2018-01-25T01:19:48.510Z,8.4
2018-01-25T01:20:57.343Z,8.4
2018-01-25T01:22:06.178Z,8.44
2018-01-25T01:23:15.279Z,8.38
2018-01-25T01:24:24.118Z,8.44
2018-01-25T01:25:33.210Z,8.41
2018-01-25T01:26:42.042Z,8.41
2018-01-25T01:27:50.876Z,8.34
2018-01-25T01:28:59.705Z,8.33
2018-01-25T01:30:08.693Z,8.3
2018-01-25T01:31:17.525Z,8.33
2018-01-25T01:32:26.357Z,8.33
2018-01-25T01:33:35.190Z,8.33
2018-01-25T01:34:44.021Z,8.44
2018-01-25T01:35:53.228Z,8.33
2018-01-25T01:37:02.060Z,8.3
2018-01-25T01:38:10.886Z,8.5
2018-01-25T01:39:19.716Z,8.4
2018-01-25T01:40:28.546Z,8.38
2018-01-25T01:41:37.377Z,8.38
2018-01-25T01:42:46.206Z,8.36
2018-01-25T01:43:55.036Z,8.41
2018-01-25T01:45:03.868Z,8.33
2018-01-25T01:46:12.700Z,8.28
2018-01-25T01:47:21.629Z,8.26
2018-01-25T01:48:30.458Z,8.36
2018-01-25T01:49:39.287Z,8.36
2018-01-25T01:50:48.118Z,8.33
2018-01-25T01:51:56.951Z,8.36
2018-01-25T01:53:05.832Z,8.29
2018-01-25T01:54:14.660Z,8.56
2018-01-25T01:55:23.490Z,8.43
2018-01-25T01:56:32.323Z,8.4
2018-01-25T01:57:41.159Z,8.44
2018-01-25T01:58:50.092Z,8.41
2018-01-25T01:59:58.922Z,8.4
2018-01-25T02:01:07.753Z,8.44
2018-01-25T02:02:16.584Z,8.62
2018-01-25T02:03:25.415Z,8.43
2018-01-25T02:04:34.393Z,8.45
2018-01-25T02:05:43.224Z,8.43
2018-01-25T02:06:52.055Z,8.34
2018-01-25T02:08:00.886Z,8.26
2018-01-25T02:09:09.715Z,8.34
2018-01-25T02:10:18.544Z,8.36
2018-01-25T02:11:27.374Z,8.3
2018-01-25T02:12:36.204Z,8.23
2018-01-25T02:13:45.033Z,8.28
2018-01-25T02:14:53.860Z,8.33
2018-01-25T02:16:02.992Z,8.29
2018-01-25T02:17:11.823Z,8.43
2018-01-25T02:18:20.653Z,8.41
2018-01-25T02:19:29.482Z,8.34
2018-01-25T02:20:38.313Z,8.38
2018-01-25T02:21:47.445Z,8.25
2018-01-25T02:22:56.273Z,8.28
2018-01-25T02:24:05.377Z,8.22
2018-01-25T02:25:14.479Z,8.23
2018-01-25T02:26:23.310Z,8.16
2018-01-25T02:27:32.139Z,8.1
2018-01-25T02:28:40.967Z,8.16
2018-01-25T02:29:49.797Z,8.11
2018-01-25T02:30:58.627Z,8.11
2018-01-25T02:32:07.458Z,8.11
2018-01-25T02:33:16.488Z,8.33
2018-01-25T02:34:25.318Z,8.18
2018-01-25T02:35:34.150Z,8.15
2018-01-25T02:36:42.981Z,8.19
2018-01-25T02:37:51.808Z,8.15
2018-01-25T02:39:00.739Z,8.28
2018-01-25T02:40:09.603Z,8.12
2018-01-25T02:41:18.405Z,8.12
2018-01-25T02:42:27.238Z,8.08
2018-01-25T02:43:36.070Z,8.12
2018-01-25T02:44:45.147Z,8.12
2018-01-25T02:45:53.975Z,8.07
2018-01-25T02:47:02.805Z,8.04
2018-01-25T02:48:11.633Z,8.11
2018-01-25T02:49:20.462Z,8.02
2018-01-25T02:50:29.293Z,8.08
2018-01-25T02:51:38.126Z,8.11
2018-01-25T02:52:46.955Z,8.02
2018-01-25T02:53:56.056Z,8.05
2018-01-25T02:55:04.883Z,7.98
2018-01-25T02:56:13.987Z,8.1
2018-01-25T02:57:22.817Z,8.11
2018-01-25T02:58:31.649Z,7.97
2018-01-25T02:59:40.475Z,7.97
2018-01-25T03:00:49.304Z,8.02
2018-01-25T03:01:58.434Z,7.95
2018-01-25T03:03:07.260Z,7.92
2018-01-25T03:04:16.091Z,7.9
2018-01-25T03:05:24.923Z,8.04
2018-01-25T03:06:33.758Z,7.97
2018-01-25T03:07:42.639Z,7.97
2018-01-25T03:08:51.469Z,7.82
2018-01-25T03:10:00.301Z,7.87
2018-01-25T03:11:09.129Z,7.87
2018-01-25T03:12:17.962Z,8
2018-01-25T03:13:27.040Z,8.01
2018-01-25T03:14:35.868Z,7.97
2018-01-25T03:15:44.972Z,7.95
2018-01-25T03:16:53.803Z,7.87
2018-01-25T03:18:02.632Z,7.87
2018-01-25T03:19:11.462Z,7.97
2018-01-25T03:20:20.292Z,7.92
2018-01-25T03:21:29.126Z,8.01
2018-01-25T03:22:37.951Z,7.97
2018-01-25T03:23:46.782Z,7.97
2018-01-25T03:24:55.758Z,7.92
2018-01-25T03:26:04.590Z,7.9
2018-01-25T03:27:13.420Z,7.89
2018-01-25T03:28:22.251Z,7.95
2018-01-25T03:29:31.121Z,7.86
2018-01-25T03:30:40.213Z,7.86
2018-01-25T03:31:49.043Z,7.89
2018-01-25T03:32:57.874Z,7.87
2018-01-25T03:34:06.704Z,7.89
2018-01-25T03:35:15.534Z,7.87
2018-01-25T03:36:24.514Z,7.87
2018-01-25T03:37:33.347Z,7.95
2018-01-25T03:38:42.177Z,7.85
2018-01-25T03:39:51.007Z,7.89
2018-01-25T03:40:59.840Z,7.93
2018-01-25T03:42:08.670Z,7.89
2018-01-25T03:43:17.497Z,7.9
2018-01-25T03:44:26.327Z,7.87
2018-01-25T03:45:35.158Z,7.86
2018-01-25T03:46:43.989Z,8.01
2018-01-25T03:47:53.070Z,7.89
2018-01-25T03:49:01.901Z,7.92
2018-01-25T03:50:10.729Z,7.89
2018-01-25T03:51:19.558Z,7.85
2018-01-25T03:52:28.390Z,7.86
2018-01-25T03:53:37.218Z,7.82
2018-01-25T03:54:46.050Z,7.9
2018-01-25T03:55:54.879Z,7.87
2018-01-25T03:57:03.706Z,8.01
2018-01-25T03:58:12.535Z,7.92
2018-01-25T03:59:21.467Z,7.83
2018-01-25T04:00:30.298Z,7.87
2018-01-25T04:01:39.405Z,7.9
2018-01-25T04:02:48.236Z,7.89
2018-01-25T04:03:57.062Z,7.86
2018-01-25T04:05:06.842Z,7.89
2018-01-25T04:06:15.677Z,7.89
2018-01-25T04:07:24.503Z,7.87
2018-01-25T04:08:33.334Z,7.85
2018-01-25T04:09:42.161Z,7.89
2018-01-25T04:10:51.291Z,7.9
2018-01-25T04:12:00.122Z,7.9
2018-01-25T04:13:08.952Z,7.93
2018-01-25T04:14:17.785Z,7.87
2018-01-25T04:15:26.616Z,8
2018-01-25T04:16:35.443Z,7.9
2018-01-25T04:17:44.270Z,7.89
2018-01-25T04:18:53.102Z,7.86
2018-01-25T04:20:02.495Z,7.85
2018-01-25T04:21:11.326Z,7.89
2018-01-25T04:22:20.260Z,8.11
2018-01-25T04:23:29.088Z,7.93
2018-01-25T04:24:37.918Z,7.87
2018-01-25T04:25:46.748Z,7.86
2018-01-25T04:26:55.579Z,7.9
2018-01-25T04:28:04.511Z,7.86
2018-01-25T04:29:13.345Z,7.92
2018-01-25T04:30:22.172Z,7.9
2018-01-25T04:31:31.002Z,7.89
2018-01-25T04:32:39.834Z,7.93
2018-01-25T04:33:48.762Z,8.02
2018-01-25T04:34:57.593Z,7.89
2018-01-25T04:36:06.421Z,7.9
2018-01-25T04:37:15.252Z,7.9
2018-01-25T04:38:24.080Z,7.93
2018-01-25T04:39:33.333Z,7.85
2018-01-25T04:40:42.163Z,7.87
2018-01-25T04:41:50.995Z,8.04
2018-01-25T04:42:59.824Z,7.89
2018-01-25T04:44:08.656Z,7.92
2018-01-25T04:45:17.856Z,7.86
2018-01-25T04:46:26.686Z,7.89
2018-01-25T04:47:35.516Z,7.93
2018-01-25T04:48:44.345Z,7.86
2018-01-25T04:49:53.172Z,7.93
2018-01-25T04:51:02.002Z,7.85
2018-01-25T04:52:10.834Z,8.12
2018-01-25T04:53:19.664Z,7.98
2018-01-25T04:54:28.493Z,7.97
2018-01-25T04:55:37.325Z,7.87
2018-01-25T04:56:46.152Z,7.85
2018-01-25T04:57:54.982Z,7.89
2018-01-25T04:59:03.817Z,7.79
2018-01-25T05:00:12.641Z,7.85
2018-01-25T05:01:21.471Z,7.83
2018-01-25T05:02:30.551Z,7.82
2018-01-25T05:03:39.381Z,7.9
2018-01-25T05:04:48.211Z,7.98
2018-01-25T05:05:57.039Z,7.95
2018-01-25T05:07:05.869Z,7.95
2018-01-25T05:08:14.949Z,7.86
2018-01-25T05:09:23.777Z,7.86
2018-01-25T05:10:32.607Z,7.86
2018-01-25T05:11:41.437Z,7.86
2018-01-25T05:12:50.280Z,7.85
2018-01-25T05:13:59.194Z,7.86
2018-01-25T05:15:08.030Z,8.04
2018-01-25T05:16:16.859Z,7.86
2018-01-25T05:17:25.692Z,7.93
2018-01-25T05:18:34.523Z,7.95
2018-01-25T05:19:43.752Z,7.93
2018-01-25T05:20:52.582Z,7.82
2018-01-25T05:22:01.411Z,7.98
2018-01-25T05:23:10.238Z,8
2018-01-25T05:24:19.071Z,7.98
2018-01-25T05:25:28.051Z,7.93
2018-01-25T05:26:37.161Z,7.95
2018-01-25T05:27:46.261Z,7.87
2018-01-25T05:28:55.091Z,7.87
2018-01-25T05:30:03.921Z,8.01
2018-01-25T05:31:12.902Z,7.86
2018-01-25T05:32:21.731Z,8.1
2018-01-25T05:33:30.559Z,7.95
2018-01-25T05:34:39.388Z,7.97
2018-01-25T05:35:48.217Z,7.87
2018-01-25T05:36:57.148Z,7.87
2018-01-25T05:38:05.976Z,7.92
2018-01-25T05:39:14.808Z,7.87
2018-01-25T05:40:23.640Z,7.8
2018-01-25T05:41:32.470Z,7.89
2018-01-25T05:42:41.302Z,7.93
2018-01-25T05:43:50.131Z,7.97
2018-01-25T05:44:58.958Z,7.98
2018-01-25T05:46:08.338Z,7.89
2018-01-25T05:47:17.170Z,7.89
2018-01-25T05:48:26.273Z,7.9
2018-01-25T05:49:35.102Z,7.9
2018-01-25T05:50:43.933Z,7.86
2018-01-25T05:51:52.763Z,7.92
2018-01-25T05:53:01.592Z,7.89
2018-01-25T05:54:10.424Z,7.82
2018-01-25T05:55:19.255Z,7.82
2018-01-25T05:56:28.084Z,7.85
2018-01-25T05:57:36.915Z,7.82
2018-01-25T05:58:46.017Z,7.85
2018-01-25T05:59:54.996Z,7.74
2018-01-25T06:01:03.827Z,7.82
2018-01-25T06:02:12.672Z,7.79
2018-01-25T06:03:21.495Z,7.64
2018-01-25T06:04:30.317Z,7.77
2018-01-25T06:05:39.147Z,7.64
2018-01-25T06:06:47.980Z,7.86
2018-01-25T06:07:56.807Z,7.68
2018-01-25T06:09:05.636Z,7.61
2018-01-25T06:10:14.469Z,7.71
2018-01-25T06:11:23.573Z,7.72
2018-01-25T06:12:32.407Z,7.67
2018-01-25T06:13:41.235Z,7.67
2018-01-25T06:14:50.069Z,7.69
2018-01-25T06:15:58.900Z,7.68
2018-01-25T06:17:07.780Z,7.58
2018-01-25T06:18:16.618Z,7.58
2018-01-25T06:19:25.732Z,7.68
2018-01-25T06:20:34.560Z,7.64
2018-01-25T06:21:43.389Z,7.63
2018-01-25T06:22:52.319Z,7.67
2018-01-25T06:24:01.146Z,7.68
2018-01-25T06:25:09.976Z,7.63
2018-01-25T06:26:18.803Z,7.61
2018-01-25T06:27:27.629Z,7.64
2018-01-25T06:28:36.461Z,7.6
2018-01-25T06:29:45.291Z,7.69
2018-01-25T06:30:54.122Z,7.67
2018-01-25T06:32:02.954Z,7.69
2018-01-25T06:33:11.780Z,7.72
2018-01-25T06:34:20.809Z,7.63
2018-01-25T06:35:29.638Z,7.68
2018-01-25T06:36:38.468Z,7.58
2018-01-25T06:37:47.298Z,7.61
2018-01-25T06:38:56.128Z,7.57
2018-01-25T06:40:05.210Z,7.55
2018-01-25T06:41:14.311Z,7.6
2018-01-25T06:42:23.145Z,7.6
2018-01-25T06:43:31.974Z,7.61
2018-01-25T06:44:40.807Z,7.61
2018-01-25T06:45:49.639Z,7.58
2018-01-25T06:46:58.470Z,7.57
2018-01-25T06:48:07.298Z,7.57
2018-01-25T06:49:16.127Z,7.57
2018-01-25T06:50:24.960Z,7.63
2018-01-25T06:51:34.113Z,7.69
2018-01-25T06:52:42.942Z,7.67
2018-01-25T06:53:51.776Z,7.63
2018-01-25T06:55:00.601Z,7.67
2018-01-25T06:56:09.431Z,7.74
2018-01-25T06:57:18.410Z,7.67
2018-01-25T06:58:27.239Z,7.75
2018-01-25T06:59:36.069Z,7.71
2018-01-25T07:00:45.175Z,7.63
2018-01-25T07:01:54.000Z,7.64
2018-01-25T07:03:03.130Z,7.63
2018-01-25T07:04:11.960Z,7.68
2018-01-25T07:05:20.788Z,7.69
2018-01-25T07:06:29.617Z,7.68
2018-01-25T07:07:38.448Z,7.71
2018-01-25T07:08:47.429Z,7.68
2018-01-25T07:09:56.261Z,7.68
2018-01-25T07:11:05.643Z,7.69
2018-01-25T07:12:14.516Z,7.74
2018-01-25T07:13:23.311Z,7.67
2018-01-25T07:14:32.442Z,7.71
2018-01-25T07:15:41.546Z,7.67
2018-01-25T07:16:50.373Z,7.69
2018-01-25T07:17:59.206Z,7.67
2018-01-25T07:19:08.041Z,7.61
2018-01-25T07:20:17.416Z,7.61
2018-01-25T07:21:26.248Z,7.63
2018-01-25T07:22:35.079Z,7.67
2018-01-25T07:23:43.906Z,7.74
2018-01-25T07:24:52.735Z,7.67
2018-01-25T07:26:01.566Z,7.63
2018-01-25T07:27:10.396Z,7.58
2018-01-25T07:28:19.230Z,7.68
2018-01-25T07:29:28.058Z,7.63
2018-01-25T07:30:36.889Z,7.57
2018-01-25T07:31:45.869Z,7.58
2018-01-25T07:32:54.701Z,7.58
2018-01-25T07:34:03.809Z,7.52
2018-01-25T07:35:12.639Z,7.58
2018-01-25T07:36:21.472Z,7.53
2018-01-25T07:37:30.451Z,7.57
2018-01-25T07:38:39.279Z,7.58
2018-01-25T07:39:48.111Z,7.58
2018-01-25T07:40:57.215Z,7.55
2018-01-25T07:42:06.047Z,7.52
2018-01-25T07:43:14.877Z,7.55
2018-01-25T07:44:23.708Z,7.49
2018-01-25T07:45:32.539Z,7.42
2018-01-25T07:46:41.368Z,7.43
2018-01-25T07:47:50.198Z,7.5
2018-01-25T07:48:59.228Z,7.49
2018-01-25T07:50:08.058Z,7.53
2018-01-25T07:51:16.892Z,7.43
2018-01-25T07:52:25.721Z,7.45
2018-01-25T07:53:34.551Z,7.52
2018-01-25T07:54:43.431Z,7.49
2018-01-25T07:55:52.258Z,7.48
2018-01-25T07:57:01.088Z,7.46
2018-01-25T07:58:09.921Z,7.4
2018-01-25T07:59:18.753Z,7.48
2018-01-25T08:00:27.579Z,7.48
2018-01-25T08:01:36.694Z,7.48
2018-01-25T08:02:45.532Z,7.43
2018-01-25T08:03:54.360Z,7.58
2018-01-25T08:05:03.193Z,7.48
2018-01-25T08:06:12.121Z,7.6
2018-01-25T08:07:20.955Z,7.6
2018-01-25T08:08:29.782Z,7.58
2018-01-25T08:09:38.614Z,7.58
2018-01-25T08:10:47.444Z,7.58
2018-01-25T08:11:56.374Z,7.55
2018-01-25T08:13:05.209Z,7.53
2018-01-25T08:14:14.313Z,7.61
2018-01-25T08:15:23.144Z,7.61
2018-01-25T08:16:31.980Z,7.6
2018-01-25T08:17:40.957Z,7.58
2018-01-25T08:18:49.790Z,7.67
2018-01-25T08:19:58.620Z,7.63
2018-01-25T08:21:07.451Z,7.75
2018-01-25T08:22:16.287Z,7.74
2018-01-25T08:23:25.262Z,7.69
2018-01-25T08:24:34.094Z,7.74
2018-01-25T08:25:42.926Z,7.67
2018-01-25T08:26:51.758Z,7.68
2018-01-25T08:28:00.589Z,7.82
2018-01-25T08:29:09.422Z,7.82
2018-01-25T08:30:18.252Z,7.87
2018-01-25T08:31:27.084Z,7.82
2018-01-25T08:32:35.913Z,7.86
2018-01-25T08:33:44.744Z,7.83
2018-01-25T08:34:53.577Z,7.86
2018-01-25T08:36:02.408Z,7.86
2018-01-25T08:37:11.240Z,7.82
2018-01-25T08:38:20.355Z,7.85
2018-01-25T08:39:29.187Z,7.95
2018-01-25T08:40:38.118Z,7.89
2018-01-25T08:41:46.950Z,7.9
2018-01-25T08:42:55.782Z,7.85
2018-01-25T08:44:04.615Z,7.85
2018-01-25T08:45:13.448Z,7.83
2018-01-25T08:46:22.280Z,7.9
2018-01-25T08:47:31.113Z,7.86
2018-01-25T08:48:40.282Z,8.02
2018-01-25T08:49:49.110Z,7.98
2018-01-25T08:50:57.942Z,7.89
2018-01-25T08:52:06.873Z,7.92
2018-01-25T08:53:15.980Z,7.98
2018-01-25T08:54:24.810Z,8.11
2018-01-25T08:55:33.641Z,8.05
2018-01-25T08:56:42.474Z,8.01
2018-01-25T08:57:51.481Z,8.07
2018-01-25T08:59:00.286Z,8.01
2018-01-25T09:00:09.120Z,8.01
2018-01-25T09:01:17.953Z,8.08
2018-01-25T09:02:26.785Z,8.16
2018-01-25T09:03:35.718Z,8.12
2018-01-25T09:04:44.551Z,8.07
2018-01-25T09:05:53.660Z,8.11
2018-01-25T09:07:02.763Z,8.1
2018-01-25T09:08:11.593Z,8.12
2018-01-25T09:09:20.572Z,8.18
2018-01-25T09:10:29.403Z,8.16
2018-01-25T09:11:38.237Z,8.26
2018-01-25T09:12:47.068Z,8.18
2018-01-25T09:13:56.173Z,8.3
2018-01-25T09:15:05.532Z,8.25
2018-01-25T09:16:14.362Z,8.34
2018-01-25T09:17:23.196Z,8.29
2018-01-25T09:18:32.307Z,8.29
2018-01-25T09:19:41.138Z,8.28
2018-01-25T09:20:50.019Z,8.26
2018-01-25T09:21:58.851Z,8.33
2018-01-25T09:23:07.682Z,8.28
2018-01-25T09:24:16.511Z,8.29
2018-01-25T09:25:25.341Z,8.34
2018-01-25T09:26:34.325Z,8.34
2018-01-25T09:27:43.160Z,8.4
2018-01-25T09:28:51.992Z,8.41
2018-01-25T09:30:00.824Z,8.44
2018-01-25T09:31:09.659Z,8.44
2018-01-25T09:32:18.491Z,8.43
2018-01-25T09:33:27.324Z,8.36
2018-01-25T09:34:36.158Z,8.48
2018-01-25T09:35:44.986Z,8.48
2018-01-25T09:36:53.814Z,8.55
2018-01-25T09:38:02.701Z,8.61
2018-01-25T09:39:11.529Z,8.61
2018-01-25T09:40:20.362Z,8.59
2018-01-25T09:41:29.194Z,8.59
2018-01-25T09:42:38.028Z,8.58
2018-01-25T09:43:46.906Z,8.65
2018-01-25T09:44:55.738Z,8.62
2018-01-25T09:46:04.863Z,8.76
2018-01-25T09:47:13.967Z,8.76
2018-01-25T09:48:22.803Z,8.76
2018-01-25T09:49:31.783Z,8.76
2018-01-25T09:50:40.614Z,8.76
2018-01-25T09:51:49.444Z,8.71
2018-01-25T09:52:58.278Z,8.76
2018-01-25T09:54:07.109Z,8.8
2018-01-25T09:55:15.992Z,8.77
2018-01-25T09:56:24.825Z,8.74
2018-01-25T09:57:33.660Z,8.83
2018-01-25T09:58:42.494Z,8.83
2018-01-25T09:59:51.327Z,8.79
2018-01-25T10:01:00.731Z,8.76
2018-01-25T10:02:09.566Z,8.8
2018-01-25T10:03:18.398Z,8.77
2018-01-25T10:04:27.507Z,8.8
2018-01-25T10:05:36.338Z,8.77
2018-01-25T10:06:45.221Z,8.86
2018-01-25T10:07:54.053Z,8.94
2018-01-25T10:09:02.883Z,8.91
2018-01-25T10:10:11.715Z,8.89
2018-01-25T10:11:20.548Z,8.92
2018-01-25T10:12:29.806Z,9.01
2018-01-25T10:13:38.893Z,8.94
2018-01-25T10:14:47.726Z,8.99
2018-01-25T10:15:56.557Z,8.89
2018-01-25T10:17:05.393Z,8.95
2018-01-25T10:18:14.327Z,8.95
2018-01-25T10:19:23.160Z,8.98
2018-01-25T10:20:31.993Z,8.98
2018-01-25T10:21:40.826Z,8.98
2018-01-25T10:22:49.935Z,9.01
2018-01-25T10:23:58.870Z,8.99
2018-01-25T10:25:07.702Z,9.04
2018-01-25T10:26:16.537Z,9.08
2018-01-25T10:27:25.404Z,9.11
2018-01-25T10:28:34.203Z,9.05
2018-01-25T10:29:43.287Z,9.04
2018-01-25T10:30:52.121Z,9.05
2018-01-25T10:32:00.953Z,9.05
2018-01-25T10:33:09.789Z,9.21
2018-01-25T10:34:18.896Z,9.15
2018-01-25T10:35:27.737Z,9.1
2018-01-25T10:36:36.561Z,9.17
2018-01-25T10:37:45.394Z,9.14
2018-01-25T10:38:54.228Z,9.17
2018-01-25T10:40:03.062Z,9.21
2018-01-25T10:41:12.317Z,9.28
2018-01-25T10:42:21.152Z,9.2
2018-01-25T10:43:30.037Z,9.2
2018-01-25T10:44:38.869Z,9.21
2018-01-25T10:45:47.704Z,9.28
2018-01-25T10:46:56.837Z,9.28
2018-01-25T10:48:05.671Z,9.23
2018-01-25T10:49:14.786Z,9.28
2018-01-25T10:50:23.618Z,9.23
2018-01-25T10:51:32.452Z,9.2
2018-01-25T10:52:41.435Z,9.18
2018-01-25T10:53:50.269Z,9.29
2018-01-25T10:54:59.105Z,9.23
2018-01-25T10:56:08.211Z,9.26
2018-01-25T10:57:17.045Z,9.26
2018-01-25T10:58:25.976Z,9.21
2018-01-25T10:59:35.086Z,9.31
2018-01-25T11:00:43.917Z,9.24
2018-01-25T11:01:52.750Z,9.26
2018-01-25T11:03:01.585Z,9.26
2018-01-25T11:04:10.566Z,9.21
2018-01-25T11:05:19.399Z,9.23
2018-01-25T11:06:28.235Z,9.26
2018-01-25T11:07:37.067Z,9.26
2018-01-25T11:08:45.902Z,9.23
2018-01-25T11:09:54.740Z,9.26
2018-01-25T11:11:03.579Z,9.29
2018-01-25T11:12:12.405Z,9.33
2018-01-25T11:13:21.238Z,9.32
2018-01-25T11:14:30.069Z,9.33
2018-01-25T11:15:39.008Z,9.26
2018-01-25T11:16:47.843Z,9.33
2018-01-25T11:17:56.672Z,9.4
2018-01-25T11:19:05.508Z,9.39
2018-01-25T11:20:14.618Z,9.36
2018-01-25T11:21:23.449Z,9.42
2018-01-25T11:22:32.283Z,9.36
2018-01-25T11:23:41.115Z,9.36
2018-01-25T11:24:49.949Z,9.35
2018-01-25T11:25:59.065Z,9.29
2018-01-25T11:27:08.147Z,9.28
2018-01-25T11:28:17.251Z,9.33
2018-01-25T11:29:26.083Z,9.21
2018-01-25T11:30:34.916Z,9.33
2018-01-25T11:31:43.750Z,9.31
2018-01-25T11:32:52.885Z,9.33
2018-01-25T11:34:01.722Z,9.36
2018-01-25T11:35:10.552Z,9.32
2018-01-25T11:36:19.390Z,9.31
2018-01-25T11:37:28.498Z,9.39
2018-01-25T11:38:37.326Z,9.38
2018-01-25T11:39:46.707Z,9.35
2018-01-25T11:40:55.537Z,9.38
2018-01-25T11:42:04.377Z,9.4
2018-01-25T11:43:13.205Z,9.39
2018-01-25T11:44:22.140Z,9.4
2018-01-25T11:45:30.974Z,9.48
2018-01-25T11:46:40.085Z,9.4
2018-01-25T11:47:48.917Z,9.4
2018-01-25T11:48:57.760Z,9.43
2018-01-25T11:50:06.594Z,9.35
2018-01-25T11:51:15.427Z,9.38
2018-01-25T11:52:24.366Z,9.4
2018-01-25T11:53:33.431Z,9.39
2018-01-25T11:54:42.464Z,9.46
2018-01-25T11:55:51.295Z,9.43
2018-01-25T11:57:00.129Z,9.36
2018-01-25T11:58:08.964Z,9.46
2018-01-25T11:59:18.073Z,9.47
2018-01-25T12:00:26.908Z,9.38
2018-01-25T12:01:35.742Z,9.46
2018-01-25T12:02:44.851Z,9.39
2018-01-25T12:03:53.685Z,9.47
2018-01-25T12:05:02.520Z,9.4
2018-01-25T12:06:11.353Z,9.5
2018-01-25T12:07:20.187Z,9.4
2018-01-25T12:08:29.019Z,9.51
2018-01-25T12:09:37.864Z,9.48
2018-01-25T12:10:46.873Z,9.53
2018-01-25T12:11:55.536Z,9.56
2018-01-25T12:13:04.368Z,9.51
2018-01-25T12:14:13.201Z,9.48
2018-01-25T12:15:22.033Z,9.53
2018-01-25T12:16:30.867Z,9.56
2018-01-25T12:17:39.701Z,9.5
2018-01-25T12:18:48.533Z,9.53
2018-01-25T12:19:57.368Z,9.53
2018-01-25T12:21:06.350Z,9.5
2018-01-25T12:22:15.462Z,9.57
2018-01-25T12:23:24.294Z,9.48
2018-01-25T12:24:33.127Z,9.61
2018-01-25T12:25:42.255Z,9.56
2018-01-25T12:26:51.388Z,9.53
2018-01-25T12:28:00.261Z,9.58
2018-01-25T12:29:09.092Z,9.47
2018-01-25T12:30:17.951Z,9.58
2018-01-25T12:31:26.867Z,9.51
2018-01-25T12:32:36.079Z,9.58
2018-01-25T12:33:44.915Z,9.56
2018-01-25T12:34:53.750Z,9.56
2018-01-25T12:36:02.584Z,9.6
2018-01-25T12:37:11.418Z,9.61
2018-01-25T12:38:20.302Z,9.71
2018-01-25T12:39:29.135Z,9.66
2018-01-25T12:40:37.969Z,9.68
2018-01-25T12:41:46.802Z,9.64
2018-01-25T12:42:55.636Z,9.6
2018-01-25T12:44:04.471Z,9.68
2018-01-25T12:45:13.303Z,9.61
2018-01-25T12:46:22.139Z,9.66
2018-01-25T12:47:30.971Z,9.61
2018-01-25T12:48:39.804Z,9.69
2018-01-25T12:49:48.788Z,9.57
2018-01-25T12:50:57.621Z,9.65
2018-01-25T12:52:06.456Z,9.6
2018-01-25T12:53:15.290Z,9.57
2018-01-25T12:54:24.121Z,9.65
2018-01-25T12:55:33.107Z,9.53
2018-01-25T12:56:41.945Z,9.6
2018-01-25T12:57:50.787Z,9.71
2018-01-25T12:58:59.623Z,9.65
2018-01-25T13:00:08.458Z,9.65
2018-01-25T13:01:17.548Z,9.65
2018-01-25T13:02:26.382Z,9.66
2018-01-25T13:03:35.214Z,9.65
2018-01-25T13:04:44.050Z,9.65
2018-01-25T13:05:52.883Z,9.72
2018-01-25T13:07:01.714Z,9.68
2018-01-25T13:08:10.549Z,9.69
2018-01-25T13:09:19.384Z,9.75
2018-01-25T13:10:28.217Z,9.75
2018-01-25T13:11:37.052Z,9.78
2018-01-25T13:12:45.985Z,9.76
2018-01-25T13:13:54.818Z,9.66
2018-01-25T13:15:03.653Z,9.66
2018-01-25T13:16:12.486Z,9.75
2018-01-25T13:17:21.319Z,9.71
2018-01-25T13:18:30.527Z,9.89
2018-01-25T13:19:39.360Z,9.71
2018-01-25T13:20:48.193Z,9.71
2018-01-25T13:21:57.026Z,9.69
2018-01-25T13:23:05.863Z,9.65
2018-01-25T13:24:14.851Z,9.61
2018-01-25T13:25:23.687Z,9.74
2018-01-25T13:26:32.517Z,9.71
2018-01-25T13:27:41.351Z,9.79
2018-01-25T13:28:50.186Z,9.76
2018-01-25T13:29:59.117Z,9.79
2018-01-25T13:31:08.003Z,9.79
2018-01-25T13:32:16.838Z,9.74
2018-01-25T13:33:25.673Z,9.72
2018-01-25T13:34:34.511Z,9.71
2018-01-25T13:35:43.394Z,9.78
2018-01-25T13:36:52.228Z,9.75
2018-01-25T13:38:01.062Z,9.81
2018-01-25T13:39:09.897Z,9.79
2018-01-25T13:40:18.731Z,9.78
2018-01-25T13:41:27.667Z,9.78
2018-01-25T13:42:36.502Z,9.74
2018-01-25T13:43:45.336Z,9.75
2018-01-25T13:44:54.169Z,9.76
2018-01-25T13:46:03.003Z,9.81
2018-01-25T13:47:11.937Z,9.76
2018-01-25T13:48:20.770Z,9.75
2018-01-25T13:49:29.876Z,9.75
2018-01-25T13:50:38.712Z,9.75
2018-01-25T13:51:47.544Z,9.66
2018-01-25T13:52:56.479Z,9.76
2018-01-25T13:54:05.314Z,9.72
2018-01-25T13:55:14.149Z,9.79
2018-01-25T13:56:22.979Z,9.76
2018-01-25T13:57:31.813Z,9.76
2018-01-25T13:58:40.749Z,9.76
2018-01-25T13:59:49.583Z,9.76
2018-01-25T14:00:58.416Z,9.78
2018-01-25T14:02:07.253Z,9.79
2018-01-25T14:03:16.089Z,9.78
2018-01-25T14:04:24.973Z,9.79
2018-01-25T14:05:33.806Z,9.69
2018-01-25T14:06:42.915Z,9.69
2018-01-25T14:07:51.749Z,9.76
2018-01-25T14:09:00.582Z,9.75
2018-01-25T14:10:09.568Z,9.75
2018-01-25T14:11:18.399Z,9.58
2018-01-25T14:12:27.229Z,9.65
2018-01-25T14:13:36.064Z,9.66
2018-01-25T14:14:44.894Z,9.71
2018-01-25T14:15:53.777Z,9.69
2018-01-25T14:17:02.885Z,9.75
2018-01-25T14:18:11.717Z,9.68
2018-01-25T14:19:20.550Z,9.68
2018-01-25T14:20:29.382Z,9.66
2018-01-25T14:21:38.216Z,9.71
2018-01-25T14:22:47.321Z,9.69
2018-01-25T14:23:56.153Z,9.65
2018-01-25T14:25:04.987Z,9.72
2018-01-25T14:26:13.841Z,9.64
2018-01-25T14:27:22.822Z,9.64
2018-01-25T14:28:31.655Z,9.66
2018-01-25T14:29:40.495Z,9.64
2018-01-25T14:30:49.597Z,9.48
2018-01-25T14:31:58.430Z,9.57
2018-01-25T14:33:07.264Z,9.56
2018-01-25T14:34:16.099Z,9.5
2018-01-25T14:35:24.932Z,9.53
2018-01-25T14:36:33.765Z,9.51
2018-01-25T14:37:42.670Z,9.56
2018-01-25T14:38:51.722Z,9.53
2018-01-25T14:40:00.896Z,9.54
2018-01-25T14:41:10.315Z,9.48
2018-01-25T14:42:19.492Z,9.43
2018-01-25T14:43:28.430Z,9.5
2018-01-25T14:44:37.462Z,9.46
2018-01-25T14:45:46.301Z,9.54
2018-01-25T14:46:55.408Z,9.48
2018-01-25T14:48:04.513Z,9.36
2018-01-25T14:49:13.369Z,9.42
2018-01-25T14:50:22.528Z,9.38
2018-01-25T14:51:31.361Z,9.39
2018-01-25T14:52:40.197Z,9.51
2018-01-25T14:53:49.030Z,9.39
2018-01-25T14:54:58.137Z,9.39
2018-01-25T14:56:07.404Z,9.36
2018-01-25T14:57:16.250Z,9.4
2018-01-25T14:58:25.085Z,9.36
2018-01-25T14:59:33.917Z,9.4
2018-01-25T15:00:42.751Z,9.38
2018-01-25T15:01:51.885Z,9.36
2018-01-25T15:03:00.718Z,9.39
2018-01-25T15:04:09.551Z,9.4
2018-01-25T15:05:18.384Z,9.35
2018-01-25T15:06:27.218Z,9.39
2018-01-25T15:07:36.104Z,9.32
2018-01-25T15:08:45.210Z,9.31
2018-01-25T15:09:54.320Z,9.33
2018-01-25T15:11:03.426Z,9.21
2018-01-25T15:12:12.257Z,9.35
2018-01-25T15:13:21.139Z,9.31
2018-01-25T15:14:29.970Z,9.32
2018-01-25T15:15:38.804Z,9.36
2018-01-25T15:16:47.636Z,9.23
2018-01-25T15:17:56.469Z,9.24
2018-01-25T15:19:05.403Z,9.2
2018-01-25T15:20:14.236Z,9.23